createdAt,value
2018-01-05T00:01:44.595Z,2.90
2018-01-05T00:04:12.087Z,2.83
2018-01-05T00:06:39.563Z,2.50
2018-01-05T00:09:07.039Z,2.60
2018-01-05T00:11:35.290Z,3.63
2018-01-05T00:14:02.760Z,2.57
2018-01-05T00:16:30.255Z,2.47
2018-01-05T00:18:57.731Z,3.20
2018-01-05T00:21:25.231Z,3.30
2018-01-05T00:23:52.704Z,2.00
2018-01-05T00:26:20.198Z,2.93
2018-01-05T00:28:47.671Z,2.10
2018-01-05T00:31:15.162Z,3.00
2018-01-05T00:33:42.635Z,3.13
2018-01-05T00:36:10.126Z,2.20
2018-01-05T00:38:38.367Z,2.87
2018-01-05T00:41:05.889Z,3.17
2018-01-05T00:43:34.127Z,4.40
2018-01-05T00:46:01.619Z,2.80
2018-01-05T00:48:29.094Z,2.60
2018-01-05T00:50:56.587Z,2.93
2018-01-05T00:53:24.827Z,3.33
2018-01-05T00:55:52.319Z,2.87
2018-01-05T00:58:19.796Z,2.90
2018-01-05T01:00:47.290Z,2.80
2018-01-05T01:03:15.528Z,3.80
2018-01-05T01:05:43.035Z,3.00
2018-01-05T01:08:10.507Z,2.60
2018-01-05T01:10:38.755Z,3.87
2018-01-05T01:13:06.252Z,2.40
2018-01-05T01:15:33.732Z,3.10
2018-01-05T01:18:01.223Z,2.33
2018-01-05T01:20:28.698Z,3.23
2018-01-05T01:22:56.186Z,3.70
2018-01-05T01:25:23.662Z,2.97
2018-01-05T01:27:51.160Z,2.80
2018-01-05T01:30:18.639Z,2.57
2018-01-05T01:32:46.130Z,2.63
2018-01-05T01:35:13.603Z,3.30
2018-01-05T01:37:41.864Z,2.70
2018-01-05T01:40:09.338Z,2.30
2018-01-05T01:42:36.835Z,3.13
2018-01-05T01:45:05.074Z,3.20
2018-01-05T01:47:32.566Z,2.70
2018-01-05T01:50:00.050Z,5.60
2018-01-05T01:52:27.550Z,2.83
2018-01-05T01:54:55.019Z,3.13
2018-01-05T01:57:22.516Z,4.50
2018-01-05T01:59:49.991Z,3.37
2018-01-05T02:02:17.482Z,3.20
2018-01-05T02:04:44.955Z,3.63
2018-01-05T02:07:12.431Z,3.10
2018-01-05T02:09:39.930Z,3.60
2018-01-05T02:12:07.407Z,2.90
2018-01-05T02:14:34.907Z,2.70
2018-01-05T02:17:02.374Z,3.63
2018-01-05T02:19:29.864Z,2.70
2018-01-05T02:21:57.341Z,2.80
2018-01-05T02:24:24.839Z,3.17
2018-01-05T02:26:53.079Z,3.93
2018-01-05T02:29:20.575Z,2.80
2018-01-05T02:31:48.040Z,3.53
2018-01-05T02:34:15.535Z,3.03
2018-01-05T02:36:43.775Z,2.93
2018-01-05T02:39:11.271Z,2.83
2018-01-05T02:41:38.748Z,4.30
2018-01-05T02:44:07.011Z,3.60
2018-01-05T02:46:34.491Z,3.50
2018-01-05T02:49:01.997Z,2.73
2018-01-05T02:51:30.311Z,5.13
2018-01-05T02:53:57.803Z,3.30
2018-01-05T02:56:25.281Z,2.03
2018-01-05T02:58:52.780Z,3.47
2018-01-05T03:01:21.027Z,3.20
2018-01-05T03:03:48.538Z,3.27
2018-01-05T03:06:16.784Z,4.20
2018-01-05T03:08:44.259Z,3.43
2018-01-05T03:11:11.755Z,4.30
2018-01-05T03:13:39.234Z,4.00
2018-01-05T03:16:07.496Z,4.70
2018-01-05T03:18:34.967Z,3.50
2018-01-05T03:21:02.463Z,4.43
2018-01-05T03:23:30.710Z,3.40
2018-01-05T03:25:58.211Z,3.67
2018-01-05T03:28:25.683Z,5.00
2018-01-05T03:30:53.185Z,4.73
2018-01-05T03:33:20.665Z,4.93
2018-01-05T03:35:48.160Z,3.80
2018-01-05T03:38:15.632Z,4.47
2018-01-05T03:40:43.125Z,4.10
2018-01-05T03:43:10.619Z,3.40
2018-01-05T03:45:38.867Z,3.73
2018-01-05T03:48:06.344Z,3.50
2018-01-05T03:50:33.839Z,3.27
2018-01-05T03:53:02.079Z,3.77
2018-01-05T03:55:29.568Z,4.67
2018-01-05T03:57:57.042Z,3.50
2018-01-05T04:00:24.534Z,4.20
2018-01-05T04:02:52.019Z,5.40
2018-01-05T04:05:20.259Z,3.60
2018-01-05T04:07:47.784Z,3.80
2018-01-05T04:10:15.257Z,5.67
2018-01-05T04:12:42.755Z,3.97
2018-01-05T04:15:10.231Z,3.87
2018-01-05T04:17:37.727Z,4.47
2018-01-05T04:20:05.209Z,4.27
2018-01-05T04:22:32.703Z,3.00
2018-01-05T04:25:00.184Z,3.70
2018-01-05T04:27:27.676Z,3.77
2018-01-05T04:29:55.916Z,4.83
2018-01-05T04:32:24.175Z,2.80
2018-01-05T04:34:51.654Z,3.03
2018-01-05T04:37:19.152Z,5.17
2018-01-05T04:39:47.387Z,5.73
2018-01-05T04:42:14.883Z,4.70
2018-01-05T04:44:42.363Z,8.00
2018-01-05T04:47:09.870Z,6.93
2018-01-05T04:49:37.351Z,3.70
2018-01-05T04:52:04.842Z,3.80
2018-01-05T04:54:32.327Z,3.80
2018-01-05T04:56:59.819Z,3.97
2018-01-05T04:59:28.063Z,3.93
2018-01-05T05:01:55.590Z,3.30
2018-01-05T05:04:23.835Z,3.70
2018-01-05T05:06:51.303Z,3.17
2018-01-05T05:09:18.795Z,4.13
2018-01-05T05:11:46.270Z,2.87
2018-01-05T05:14:13.767Z,3.53
2018-01-05T05:16:41.235Z,3.93
2018-01-05T05:19:08.726Z,3.27
2018-01-05T05:21:36.211Z,2.73
2018-01-05T05:24:03.702Z,3.33
2018-01-05T05:26:31.180Z,3.33
2018-01-05T05:28:58.667Z,3.17
2018-01-05T05:31:26.912Z,2.87
2018-01-05T05:33:54.524Z,4.80
2018-01-05T05:36:22.759Z,2.73
2018-01-05T05:38:50.251Z,3.33
2018-01-05T05:41:17.727Z,4.20
2018-01-05T05:43:45.228Z,3.90
2018-01-05T05:46:13.468Z,2.70
2018-01-05T05:48:40.968Z,4.47
2018-01-05T05:51:08.435Z,2.37
2018-01-05T05:53:35.927Z,3.50
2018-01-05T05:56:04.171Z,2.97
2018-01-05T05:58:31.667Z,3.13
2018-01-05T06:00:59.147Z,2.67
2018-01-05T06:03:27.522Z,2.70
2018-01-05T06:05:55.007Z,3.03
2018-01-05T06:08:23.254Z,3.67
2018-01-05T06:10:50.739Z,3.53
2018-01-05T06:13:18.219Z,2.60
2018-01-05T06:15:45.703Z,2.20
2018-01-05T06:18:13.942Z,2.90
2018-01-05T06:20:41.440Z,2.77
2018-01-05T06:23:08.911Z,3.00
2018-01-05T06:25:36.400Z,2.43
2018-01-05T06:28:04.647Z,2.97
2018-01-05T06:30:32.142Z,2.10
2018-01-05T06:32:59.615Z,2.40
2018-01-05T06:35:27.127Z,2.10
2018-01-05T06:37:54.606Z,2.50
2018-01-05T06:40:22.103Z,1.90
2018-01-05T06:42:49.574Z,2.50
2018-01-05T06:45:17.066Z,2.37
2018-01-05T06:47:45.320Z,2.00
2018-01-05T06:50:12.811Z,1.97
2018-01-05T06:52:40.290Z,1.93
2018-01-05T06:55:07.784Z,1.70
2018-01-05T06:57:36.031Z,2.07
2018-01-05T07:00:03.504Z,1.63
2018-01-05T07:02:31.000Z,2.47
2018-01-05T07:04:58.471Z,1.80
2018-01-05T07:07:26.731Z,1.83
2018-01-05T07:09:54.207Z,1.90
2018-01-05T07:12:21.702Z,1.80
2018-01-05T07:14:49.939Z,2.80
2018-01-05T07:17:17.435Z,1.50
2018-01-05T07:19:44.903Z,1.70
2018-01-05T07:22:12.395Z,1.63
2018-01-05T07:24:39.867Z,2.30
2018-01-05T07:27:08.128Z,2.03
2018-01-05T07:29:35.595Z,1.77
2018-01-05T07:32:03.084Z,1.77
2018-01-05T07:34:31.563Z,1.77
2018-01-05T07:36:59.055Z,1.33
2018-01-05T07:39:26.530Z,1.93
2018-01-05T07:41:54.788Z,1.53
2018-01-05T07:44:22.258Z,1.97
2018-01-05T07:46:49.746Z,2.10
2018-01-05T07:49:17.222Z,1.57
2018-01-05T07:51:44.740Z,1.83
2018-01-05T07:54:12.220Z,1.67
2018-01-05T07:56:39.715Z,1.60
2018-01-05T07:59:07.183Z,1.57
2018-01-05T08:01:34.663Z,1.20
2018-01-05T08:04:02.170Z,1.63
2018-01-05T08:06:29.643Z,1.50
2018-01-05T08:08:57.160Z,6.10
2018-01-05T08:11:24.636Z,1.33
2018-01-05T08:13:52.127Z,1.37
2018-01-05T08:16:20.364Z,1.07
2018-01-05T08:18:47.855Z,1.47
2018-01-05T08:21:15.343Z,1.23
2018-01-05T08:23:42.839Z,1.53
2018-01-05T08:26:11.075Z,1.30
2018-01-05T08:28:38.567Z,1.00
2018-01-05T08:31:06.048Z,1.53
2018-01-05T08:33:34.303Z,1.23
2018-01-05T08:36:01.779Z,1.33
2018-01-05T08:38:29.267Z,1.57
2018-01-05T08:40:56.744Z,2.57
2018-01-05T08:43:24.250Z,2.00
2018-01-05T08:45:53.675Z,1.30
2018-01-05T08:48:21.179Z,1.17
2018-01-05T08:50:48.655Z,1.33
2018-01-05T08:53:16.150Z,3.80
2018-01-05T08:55:44.391Z,2.10
2018-01-05T08:58:11.867Z,1.03
2018-01-05T09:00:39.362Z,1.50
2018-01-05T09:03:06.844Z,1.20
2018-01-05T09:05:35.107Z,1.60
2018-01-05T09:08:02.591Z,1.00
2018-01-05T09:10:30.095Z,1.53
2018-01-05T09:12:57.571Z,0.70
2018-01-05T09:15:25.072Z,1.30
2018-01-05T09:17:52.553Z,1.00
2018-01-05T09:20:20.047Z,1.20
2018-01-05T09:22:47.523Z,1.80
2018-01-05T09:25:15.788Z,1.10
2018-01-05T09:27:43.259Z,1.17
2018-01-05T09:30:10.747Z,1.10
2018-01-05T09:32:38.996Z,0.80
2018-01-05T09:35:06.495Z,1.57
2018-01-05T09:37:33.971Z,1.63
2018-01-05T09:40:02.243Z,0.80
2018-01-05T09:42:29.723Z,2.17
2018-01-05T09:44:57.219Z,2.40
2018-01-05T09:47:25.459Z,0.63
2018-01-05T09:49:52.954Z,0.70
2018-01-05T09:52:20.430Z,0.90
2018-01-05T09:54:47.943Z,0.80
2018-01-05T09:57:15.419Z,0.70
2018-01-05T09:59:42.895Z,0.77
2018-01-05T10:02:10.390Z,0.80
2018-01-05T10:04:37.872Z,1.10
2018-01-05T10:07:05.363Z,0.67
2018-01-05T10:09:33.616Z,0.60
2018-01-05T10:12:01.116Z,0.50
2018-01-05T10:14:29.359Z,1.00
2018-01-05T10:16:56.855Z,1.53
2018-01-05T10:19:24.337Z,0.90
2018-01-05T10:21:52.599Z,0.70
2018-01-05T10:24:20.079Z,0.80
2018-01-05T10:26:52.332Z,0.53
2018-01-05T10:29:19.811Z,0.70
2018-01-05T10:31:47.302Z,0.60
2018-01-05T10:34:14.779Z,1.03
2018-01-05T10:36:42.275Z,0.70
2018-01-05T10:39:09.752Z,0.73
2018-01-05T10:41:37.247Z,0.90
2018-01-05T10:44:04.726Z,0.90
2018-01-05T10:46:32.232Z,1.40
2018-01-05T10:49:00.475Z,1.30
2018-01-05T10:51:27.972Z,0.73
2018-01-05T10:53:55.447Z,0.80
2018-01-05T10:56:22.963Z,0.90
2018-01-05T10:58:50.436Z,0.80
2018-01-05T11:01:17.951Z,0.70
2018-01-05T11:03:45.442Z,0.70
2018-01-05T11:06:13.693Z,0.77
2018-01-05T11:08:41.187Z,0.93
2018-01-05T11:11:08.659Z,1.00
2018-01-05T11:13:36.156Z,0.50
2018-01-05T11:16:03.636Z,0.50
2018-01-05T11:18:31.136Z,0.50
2018-01-05T11:20:58.614Z,0.40
2018-01-05T11:23:26.106Z,0.40
2018-01-05T11:25:54.348Z,0.40
2018-01-05T11:28:21.847Z,0.40
2018-01-05T11:30:49.319Z,0.40
2018-01-05T11:33:16.813Z,0.40
2018-01-05T11:35:45.056Z,0.83
2018-01-05T11:38:12.548Z,0.30
2018-01-05T11:40:40.029Z,0.60
2018-01-05T11:43:08.279Z,0.47
2018-01-05T11:45:35.743Z,0.70
2018-01-05T11:48:03.240Z,1.20
2018-01-05T11:50:30.743Z,0.70
2018-01-05T11:52:58.991Z,11.20
2018-01-05T11:55:26.463Z,0.83
2018-01-05T11:58:03.908Z,0.50
2018-01-05T12:00:31.389Z,0.70
2018-01-05T12:02:58.887Z,0.70
2018-01-05T12:05:26.364Z,0.70
2018-01-05T12:07:53.835Z,0.80
2018-01-05T12:10:21.332Z,1.10
2018-01-05T12:12:48.803Z,0.53
2018-01-05T12:15:16.295Z,0.60
2018-01-05T12:17:43.787Z,1.30
2018-01-05T12:20:11.280Z,0.70
2018-01-05T12:22:38.755Z,0.70
2018-01-05T12:25:06.243Z,0.80
2018-01-05T12:27:33.720Z,0.47
2018-01-05T12:30:01.275Z,0.77
2018-01-05T12:32:28.702Z,0.87
2018-01-05T12:34:56.198Z,0.90
2018-01-05T12:37:23.886Z,0.30
2018-01-05T12:39:52.388Z,0.50
2018-01-05T12:42:19.867Z,0.60
2018-01-05T12:44:48.331Z,4.10
2018-01-05T12:47:16.268Z,0.60
2018-01-05T12:49:43.764Z,0.97
2018-01-05T12:52:13.196Z,1.00
2018-01-05T12:54:40.692Z,1.40
2018-01-05T12:57:08.171Z,0.77
2018-01-05T12:59:35.666Z,1.07
2018-01-05T13:02:03.139Z,1.10
2018-01-05T13:04:30.617Z,0.80
2018-01-05T13:06:58.135Z,0.73
2018-01-05T13:09:25.629Z,0.80
2018-01-05T13:11:53.900Z,1.80
2018-01-05T13:14:21.379Z,2.03
2018-01-05T13:16:49.640Z,3.10
2018-01-05T13:19:17.113Z,3.80
2018-01-05T13:21:44.609Z,2.70
2018-01-05T13:24:12.843Z,4.87
2018-01-05T13:26:40.327Z,2.77
2018-01-05T13:29:07.800Z,2.87
2018-01-05T13:31:35.329Z,6.50
2018-01-05T13:34:02.822Z,13.73
2018-01-05T13:36:32.403Z,7.33
2018-01-05T13:39:00.644Z,2.67
2018-01-05T13:41:28.181Z,2.77
2018-01-05T13:43:55.681Z,1.90
2018-01-05T13:46:26.523Z,2.30
2018-01-05T13:48:54.035Z,2.40
2018-01-05T13:51:21.540Z,2.07
2018-01-05T13:53:49.020Z,2.50
2018-01-05T13:56:16.528Z,1.27
2018-01-05T13:58:44.053Z,3.60
2018-01-05T14:01:11.552Z,2.67
2018-01-05T14:03:39.368Z,2.97
2018-01-05T14:06:06.848Z,20.60
2018-01-05T14:08:38.272Z,24.17
2018-01-05T14:11:05.801Z,5.23
2018-01-05T14:13:34.057Z,9.43
2018-01-05T14:16:02.704Z,1.60
2018-01-05T14:18:30.220Z,2.73
2018-01-05T14:20:57.720Z,2.03
2018-01-05T14:23:26.948Z,2.40
2018-01-05T14:25:54.434Z,4.00
2018-01-05T14:28:21.923Z,2.27
2018-01-05T14:30:49.405Z,3.67
2018-01-05T14:33:16.903Z,4.47
2018-01-05T14:35:44.383Z,6.63
2018-01-05T14:38:11.881Z,2.43
2018-01-05T14:40:39.367Z,3.00
2018-01-05T14:43:06.860Z,2.50
2018-01-05T14:45:35.311Z,2.83
2018-01-05T14:48:02.804Z,4.37
2018-01-05T14:50:30.280Z,3.80
2018-01-05T14:52:57.766Z,6.00
2018-01-05T14:55:25.247Z,10.03
2018-01-05T14:57:52.744Z,5.23
2018-01-05T15:00:22.860Z,19.63
2018-01-05T15:02:51.120Z,9.30
2018-01-05T15:05:18.597Z,5.80
2018-01-05T15:07:46.072Z,3.17
2018-01-05T15:10:13.564Z,3.00
2018-01-05T15:12:41.796Z,3.33
2018-01-05T15:15:09.363Z,4.00
2018-01-05T15:17:36.835Z,3.57
2018-01-05T15:20:04.327Z,2.37
2018-01-05T15:22:31.795Z,2.00
2018-01-05T15:24:59.301Z,11.23
2018-01-05T15:27:27.547Z,6.80
2018-01-05T15:29:56.036Z,5.90
2018-01-05T15:32:23.525Z,4.43
2018-01-05T15:34:51.039Z,3.33
2018-01-05T15:37:18.516Z,3.57
2018-01-05T15:39:46.008Z,6.63
2018-01-05T15:42:13.484Z,3.73
2018-01-05T15:44:44.703Z,4.43
2018-01-05T15:47:12.180Z,4.10
2018-01-05T15:49:39.679Z,2.30
2018-01-05T15:52:07.156Z,8.97
2018-01-05T15:54:34.659Z,5.40
2018-01-05T15:57:02.138Z,3.87
2018-01-05T15:59:30.400Z,6.10
2018-01-05T16:01:57.879Z,4.33
2018-01-05T16:04:25.363Z,4.83
2018-01-05T16:06:53.641Z,6.13
2018-01-05T16:09:21.124Z,5.23
2018-01-05T16:11:49.392Z,5.57
2018-01-05T16:14:17.826Z,25.60
2018-01-05T16:16:45.330Z,7.13
2018-01-05T16:19:12.837Z,12.37
2018-01-05T16:21:41.099Z,3.73
2018-01-05T16:24:08.583Z,3.20
2018-01-05T16:26:36.088Z,1.70
2018-01-05T16:29:03.593Z,2.77
2018-01-05T16:31:31.083Z,1.67
2018-01-05T16:33:58.559Z,3.10
2018-01-05T16:36:26.940Z,2.50
2018-01-05T16:38:54.424Z,2.60
2018-01-05T16:41:21.923Z,2.23
2018-01-05T16:43:49.425Z,4.17
2018-01-05T16:46:16.916Z,3.27
2018-01-05T16:48:44.663Z,2.73
2018-01-05T16:51:12.163Z,3.77
2018-01-05T16:53:39.634Z,3.10
2018-01-05T16:56:07.136Z,3.37
2018-01-05T16:58:35.384Z,2.90
2018-01-05T17:01:02.875Z,3.10
2018-01-05T17:03:30.354Z,3.57
2018-01-05T17:05:57.848Z,2.80
2018-01-05T17:08:25.328Z,3.33
2018-01-05T17:10:52.846Z,2.90
2018-01-05T17:13:20.321Z,3.80
2018-01-05T17:15:47.801Z,3.23
2018-01-05T17:18:15.297Z,4.00
2018-01-05T17:20:42.776Z,3.63
2018-01-05T17:23:10.271Z,3.60
2018-01-05T17:25:37.748Z,3.27
2018-01-05T17:28:05.605Z,2.57
2018-01-05T17:30:33.848Z,2.77
2018-01-05T17:33:01.345Z,5.67
2018-01-05T17:35:28.819Z,3.83
2018-01-05T17:37:56.315Z,4.00
2018-01-05T17:40:23.792Z,3.80
2018-01-05T17:42:51.286Z,5.47
2018-01-05T17:45:18.759Z,6.50
2018-01-05T17:47:46.256Z,6.03
2018-01-05T17:50:14.496Z,5.87
2018-01-05T17:52:41.987Z,5.80
2018-01-05T17:55:09.463Z,5.87
2018-01-05T17:57:36.960Z,6.27
2018-01-05T18:00:06.023Z,7.27
2018-01-05T18:02:33.514Z,6.50
2018-01-05T18:05:00.983Z,6.80
2018-01-05T18:07:28.581Z,7.77
2018-01-05T18:09:56.095Z,8.50
2018-01-05T18:12:23.567Z,7.90
2018-01-05T18:14:51.068Z,10.63
2018-01-05T18:17:18.553Z,10.37
2018-01-05T18:19:46.819Z,10.20
2018-01-05T18:22:15.082Z,11.57
2018-01-05T18:24:42.579Z,10.60
2018-01-05T18:27:10.059Z,10.70
2018-01-05T18:29:38.329Z,9.13
2018-01-05T18:32:05.811Z,8.50
2018-01-05T18:34:33.308Z,8.17
2018-01-05T18:37:00.824Z,8.70
2018-01-05T18:39:28.294Z,7.50
2018-01-05T18:41:55.767Z,6.70
2018-01-05T18:44:23.264Z,5.77
2018-01-05T18:46:50.728Z,6.03
2018-01-05T18:49:18.235Z,7.63
2018-01-05T18:51:56.023Z,7.40
2018-01-05T18:54:24.287Z,7.47
2018-01-05T18:56:51.779Z,6.40
2018-01-05T18:59:20.035Z,7.40
2018-01-05T19:01:47.523Z,7.33
2018-01-05T19:04:15.032Z,4.20
2018-01-05T19:06:42.504Z,6.50
2018-01-05T19:09:10.034Z,5.40
2018-01-05T19:11:37.497Z,4.53
2018-01-05T19:14:04.977Z,3.07
2018-01-05T19:16:32.475Z,4.00
2018-01-05T19:18:59.951Z,3.33
2018-01-05T19:21:27.448Z,4.47
2018-01-05T19:23:54.928Z,3.00
2018-01-05T19:26:22.420Z,3.10
2018-01-05T19:28:49.899Z,3.00
2018-01-05T19:31:17.392Z,3.60
2018-01-05T19:33:45.644Z,4.63
2018-01-05T19:36:13.139Z,3.60
2018-01-05T19:38:41.383Z,3.80
2018-01-05T19:41:08.884Z,4.60
2018-01-05T19:43:36.360Z,3.67
2018-01-05T19:46:03.851Z,3.80
2018-01-05T19:48:31.332Z,3.97
2018-01-05T19:50:58.827Z,3.97
2018-01-05T19:53:26.299Z,4.03
2018-01-05T19:55:53.792Z,4.10
2018-01-05T19:58:21.267Z,5.50
2018-01-05T20:00:48.760Z,5.27
2018-01-05T20:03:16.991Z,4.30
2018-01-05T20:05:45.256Z,5.00
2018-01-05T20:08:12.751Z,4.77
2018-01-05T20:10:40.237Z,5.87
2018-01-05T20:13:07.727Z,4.30
2018-01-05T20:15:35.204Z,4.63
2018-01-05T20:18:02.704Z,5.07
2018-01-05T20:20:30.191Z,4.70
2018-01-05T20:22:57.686Z,4.07
2018-01-05T20:25:25.160Z,4.77
2018-01-05T20:27:52.667Z,4.90
2018-01-05T20:30:20.903Z,4.17
2018-01-05T20:32:48.400Z,4.43
2018-01-05T20:35:15.876Z,5.10
2018-01-05T20:37:43.368Z,4.07
2018-01-05T20:40:11.607Z,3.70
2018-01-05T20:42:39.099Z,3.97
2018-01-05T20:45:06.574Z,4.20
2018-01-05T20:47:34.077Z,3.77
2018-01-05T20:50:01.566Z,3.93
2018-01-05T20:52:29.068Z,4.27
2018-01-05T20:54:56.548Z,4.00
2018-01-05T20:57:24.043Z,4.03
2018-01-05T20:59:52.283Z,3.37
2018-01-05T21:02:19.767Z,3.80
2018-01-05T21:04:47.247Z,3.67
2018-01-05T21:07:14.792Z,3.63
2018-01-05T21:09:42.239Z,3.50
2018-01-05T21:12:10.305Z,3.60
2018-01-05T21:14:37.783Z,3.53
2018-01-05T21:17:05.280Z,2.50
2018-01-05T21:19:32.756Z,3.30
2018-01-05T21:22:00.238Z,3.50
2018-01-05T21:24:27.736Z,3.50
2018-01-05T21:26:55.976Z,3.73
2018-01-05T21:29:23.510Z,4.60
2018-01-05T21:31:50.987Z,4.10
2018-01-05T21:34:18.483Z,4.80
2018-01-05T21:36:45.955Z,4.13
2018-01-05T21:39:13.447Z,4.00
2018-01-05T21:41:40.920Z,4.90
2018-01-05T21:44:08.415Z,5.60
2018-01-05T21:46:36.655Z,5.57
2018-01-05T21:49:04.147Z,6.67
2018-01-05T21:51:31.622Z,4.80
2018-01-05T21:53:59.129Z,5.50
2018-01-05T21:56:26.613Z,5.97
2018-01-05T21:58:54.115Z,5.43
2018-01-05T22:01:21.587Z,5.83
2018-01-05T22:03:49.092Z,5.33
2018-01-05T22:06:17.335Z,5.30
2018-01-05T22:08:44.879Z,5.80
2018-01-05T22:11:12.368Z,5.23
2018-01-05T22:13:39.866Z,5.80
2018-01-05T22:16:07.336Z,4.87
2018-01-05T22:18:34.851Z,4.70
2018-01-05T22:21:02.359Z,5.03
2018-01-05T22:23:29.859Z,4.23
2018-01-05T22:25:57.555Z,4.80
2018-01-05T22:28:25.828Z,4.90
2018-01-05T22:30:54.072Z,4.93
2018-01-05T22:33:21.565Z,4.67
2018-01-05T22:35:49.043Z,4.97
2018-01-05T22:38:16.536Z,5.37
2018-01-05T22:40:44.778Z,4.90
2018-01-05T22:43:12.282Z,4.77
2018-01-05T22:45:39.760Z,4.80
2018-01-05T22:48:07.267Z,4.23
2018-01-05T22:50:35.656Z,4.70
2018-01-05T22:53:03.143Z,4.40
2018-01-05T22:55:30.622Z,4.40
2018-01-05T22:57:58.119Z,4.40
2018-01-05T23:00:25.614Z,4.40
2018-01-05T23:02:54.229Z,5.47
2018-01-05T23:05:21.711Z,5.53
2018-01-05T23:07:49.204Z,4.90
2018-01-05T23:10:16.696Z,5.70
2018-01-05T23:12:44.171Z,5.10
2018-01-05T23:15:11.667Z,5.87
2018-01-05T23:17:39.138Z,4.50
2018-01-05T23:20:06.636Z,5.43
2018-01-05T23:22:34.878Z,4.93
2018-01-05T23:25:03.147Z,4.80
2018-01-05T23:27:30.623Z,5.20
2018-01-05T23:29:58.116Z,5.23
2018-01-05T23:32:26.364Z,5.03
2018-01-05T23:34:53.854Z,5.13
2018-01-05T23:37:21.333Z,4.93
2018-01-05T23:39:48.834Z,5.13
2018-01-05T23:42:16.315Z,4.80
2018-01-05T23:44:44.824Z,4.47
2018-01-05T23:47:12.297Z,4.90
2018-01-05T23:49:39.791Z,4.27
2018-01-05T23:52:07.271Z,5.10
2018-01-05T23:54:34.744Z,5.50
2018-01-05T23:57:20.431Z,4.47
2018-01-05T23:59:47.926Z,4.87
